Terminal Aerodrome Forecast
Issued by NWS Tallahassee, FL

Home | Current Version | Previous Version | Text Only | Print | Product List | Glossary On
Versions: 1 2 3 4 5 6 7 8 9 10 11 12
000
FTUS42 KTAE 262338
TAFTLH
TAF
KTLH 262338Z 2700/2724 27012G20KT P6SM SCT050 BKN250
     FM270100 24004KT P6SM FEW050 BKN250
     FM271500 30009KT P6SM SCT050 BKN250=

USA.gov is the U.S. government's official web portal to all federal, state and local government web resources and services.